createdAt,value
2019-03-25T00:00:54.004Z,995.07
2019-03-25T00:01:53.951Z,995.04
2019-03-25T00:02:53.943Z,995.04
2019-03-25T00:03:53.932Z,995.02
2019-03-25T00:04:53.912Z,995.06
2019-03-25T00:05:53.931Z,995.04
2019-03-25T00:06:53.890Z,995.04
2019-03-25T00:07:53.880Z,995.04
2019-03-25T00:09:05.034Z,994.99
2019-03-25T00:09:54.857Z,994.98
2019-03-25T00:10:53.875Z,995.05
2019-03-25T00:11:53.841Z,995.02
2019-03-25T00:12:53.830Z,994.97
2019-03-25T00:13:53.817Z,994.97
2019-03-25T00:14:53.810Z,994.93
2019-03-25T00:15:56.360Z,994.94
2019-03-25T00:16:53.787Z,994.95
2019-03-25T00:17:53.774Z,994.94
2019-03-25T00:18:53.762Z,994.92
2019-03-25T00:19:53.753Z,994.91
2019-03-25T00:20:53.765Z,994.91
2019-03-25T00:21:53.732Z,994.91
2019-03-25T00:22:53.718Z,994.89
2019-03-25T00:23:53.719Z,994.95
2019-03-25T00:24:53.699Z,994.91
2019-03-25T00:25:53.711Z,994.84
2019-03-25T00:26:53.677Z,994.78
2019-03-25T00:27:53.670Z,994.80
2019-03-25T00:28:53.660Z,994.79
2019-03-25T00:29:53.645Z,994.75
2019-03-25T00:30:53.661Z,994.78
2019-03-25T00:31:53.630Z,994.73
2019-03-25T00:32:53.614Z,994.73
2019-03-25T00:33:53.605Z,994.70
2019-03-25T00:34:53.590Z,994.72
2019-03-25T00:35:53.613Z,994.70
2019-03-25T00:36:53.570Z,994.70
2019-03-25T00:37:53.559Z,994.68
2019-03-25T00:38:53.548Z,994.65
2019-03-25T00:39:53.544Z,994.64
2019-03-25T00:40:53.555Z,994.62
2019-03-25T00:41:53.520Z,994.56
2019-03-25T00:42:53.509Z,994.59
2019-03-25T00:43:53.496Z,994.53
2019-03-25T00:44:53.482Z,994.53
2019-03-25T00:45:53.502Z,994.50
2019-03-25T00:46:53.465Z,994.52
2019-03-25T00:47:53.461Z,994.58
2019-03-25T00:48:53.452Z,994.59
2019-03-25T00:49:53.443Z,994.51
2019-03-25T00:50:53.442Z,994.52
2019-03-25T00:51:53.410Z,994.48
2019-03-25T00:52:53.402Z,994.46
2019-03-25T00:53:53.391Z,994.38
2019-03-25T00:54:53.379Z,994.37
2019-03-25T00:55:53.408Z,994.38
2019-03-25T00:56:53.351Z,994.36
2019-03-25T00:57:53.352Z,994.33
2019-03-25T00:58:53.338Z,994.32
2019-03-25T00:59:53.331Z,994.24
2019-03-25T01:00:53.312Z,994.27
2019-03-25T01:01:53.320Z,994.24
2019-03-25T01:02:53.294Z,994.20
2019-03-25T01:03:53.276Z,994.20
2019-03-25T01:04:53.268Z,994.19
2019-03-25T01:05:53.255Z,994.16
2019-03-25T01:06:53.271Z,994.23
2019-03-25T01:07:53.239Z,994.18
2019-03-25T01:08:53.225Z,994.19
2019-03-25T01:09:53.211Z,994.16
2019-03-25T01:10:53.201Z,994.19
2019-03-25T01:11:53.222Z,994.20
2019-03-25T01:12:53.177Z,994.22
2019-03-25T01:13:53.166Z,994.17
2019-03-25T01:14:53.154Z,994.17
2019-03-25T01:15:53.147Z,994.11
2019-03-25T01:16:53.156Z,994.09
2019-03-25T01:17:53.122Z,994.12
2019-03-25T01:18:53.114Z,994.15
2019-03-25T01:19:53.104Z,994.16
2019-03-25T01:20:53.091Z,994.15
2019-03-25T01:21:53.103Z,994.14
2019-03-25T01:22:53.071Z,994.09
2019-03-25T01:23:53.056Z,994.08
2019-03-25T01:25:01.334Z,994.09
2019-03-25T01:25:54.039Z,994.04
2019-03-25T01:26:53.047Z,993.97
2019-03-25T01:27:53.012Z,993.98
2019-03-25T01:28:53.004Z,994.04
2019-03-25T01:29:52.993Z,994.03
2019-03-25T01:30:52.986Z,994.02
2019-03-25T01:31:52.994Z,994.01
2019-03-25T01:32:52.958Z,993.98
2019-03-25T01:33:52.955Z,994.02
2019-03-25T01:34:52.934Z,993.99
2019-03-25T01:35:52.985Z,994.02
2019-03-25T01:36:52.953Z,993.98
2019-03-25T01:37:52.906Z,993.97
2019-03-25T01:38:52.895Z,993.97
2019-03-25T01:39:52.881Z,993.93
2019-03-25T01:40:52.867Z,993.92
2019-03-25T01:41:52.857Z,993.91
2019-03-25T01:42:52.872Z,993.88
2019-03-25T01:43:52.836Z,993.85
2019-03-25T01:44:52.829Z,993.82
2019-03-25T01:45:52.815Z,993.81
2019-03-25T01:46:52.812Z,993.82
2019-03-25T01:47:52.813Z,993.80
2019-03-25T01:48:52.788Z,993.84
2019-03-25T01:49:52.776Z,993.82
2019-03-25T01:50:52.764Z,993.81
2019-03-25T01:51:52.745Z,993.78
2019-03-25T01:52:52.768Z,993.83
2019-03-25T01:53:52.729Z,993.77
2019-03-25T01:54:52.713Z,993.75
2019-03-25T01:55:52.706Z,993.77
2019-03-25T01:56:52.692Z,993.74
2019-03-25T01:57:52.705Z,993.70
2019-03-25T01:58:52.668Z,993.68
2019-03-25T01:59:52.659Z,993.66
2019-03-25T02:00:52.650Z,993.65
2019-03-25T02:01:52.634Z,993.60
2019-03-25T02:02:52.649Z,993.56
2019-03-25T02:03:52.617Z,993.57
2019-03-25T02:04:52.607Z,993.59
2019-03-25T02:05:52.596Z,993.55
2019-03-25T02:06:52.582Z,993.55
2019-03-25T02:07:52.591Z,993.56
2019-03-25T02:08:52.559Z,993.53
2019-03-25T02:09:52.545Z,993.51
2019-03-25T02:10:52.534Z,993.47
2019-03-25T02:11:52.528Z,993.48
2019-03-25T02:12:52.537Z,993.42
2019-03-25T02:13:52.508Z,993.43
2019-03-25T02:14:52.496Z,993.41
2019-03-25T02:15:52.483Z,993.34
2019-03-25T02:16:52.468Z,993.40
2019-03-25T02:17:52.487Z,993.41
2019-03-25T02:18:52.451Z,993.37
2019-03-25T02:19:52.438Z,993.36
2019-03-25T02:20:52.476Z,993.34
2019-03-25T02:21:52.413Z,993.37
2019-03-25T02:22:52.637Z,993.30
2019-03-25T02:23:52.392Z,993.30
2019-03-25T02:24:52.381Z,993.31
2019-03-25T02:25:52.376Z,993.27
2019-03-25T02:26:52.362Z,993.32
2019-03-25T02:27:52.377Z,993.27
2019-03-25T02:28:52.338Z,993.29
2019-03-25T02:29:52.324Z,993.22
2019-03-25T02:30:52.318Z,993.15
2019-03-25T02:31:52.305Z,993.18
2019-03-25T02:32:52.292Z,993.09
2019-03-25T02:33:52.305Z,993.11
2019-03-25T02:34:52.272Z,993.12
2019-03-25T02:35:52.266Z,993.09
2019-03-25T02:36:52.247Z,993.00
2019-03-25T02:37:52.239Z,992.97
2019-03-25T02:38:52.252Z,992.95
2019-03-25T02:39:52.213Z,993.02
2019-03-25T02:40:52.207Z,992.99
2019-03-25T02:41:52.192Z,993.00
2019-03-25T02:42:52.190Z,993.00
2019-03-25T02:43:52.194Z,992.96
2019-03-25T02:44:52.159Z,992.97
2019-03-25T02:45:52.151Z,992.99
2019-03-25T02:46:52.141Z,992.98
2019-03-25T02:47:52.137Z,992.95
2019-03-25T02:48:52.141Z,993.02
2019-03-25T02:49:52.111Z,993.02
2019-03-25T02:50:52.103Z,992.96
2019-03-25T02:51:52.084Z,992.96
2019-03-25T02:52:52.073Z,992.93
2019-03-25T02:53:52.097Z,992.92
2019-03-25T02:54:52.064Z,992.91
2019-03-25T02:55:52.041Z,992.85
2019-03-25T02:56:52.027Z,992.86
2019-03-25T02:57:52.018Z,992.89
2019-03-25T02:58:52.029Z,992.84
2019-03-25T02:59:51.998Z,992.85
2019-03-25T03:00:51.999Z,992.79
2019-03-25T03:01:51.981Z,992.76
2019-03-25T03:02:51.961Z,992.69
2019-03-25T03:03:51.973Z,992.73
2019-03-25T03:04:51.938Z,992.70
2019-03-25T03:05:51.928Z,992.75
2019-03-25T03:06:51.914Z,992.71
2019-03-25T03:07:51.909Z,992.69
2019-03-25T03:08:51.921Z,992.65
2019-03-25T03:09:51.884Z,992.64
2019-03-25T03:10:51.873Z,992.64
2019-03-25T03:11:51.860Z,992.64
2019-03-25T03:12:51.849Z,992.59
2019-03-25T03:13:51.879Z,992.58
2019-03-25T03:14:51.828Z,992.58
2019-03-25T03:15:51.822Z,992.54
2019-03-25T03:16:51.810Z,992.54
2019-03-25T03:17:51.802Z,992.56
2019-03-25T03:18:51.797Z,992.56
2019-03-25T03:19:55.075Z,992.53
2019-03-25T03:20:51.769Z,992.55
2019-03-25T03:21:51.757Z,992.49
2019-03-25T03:22:51.744Z,992.49
2019-03-25T03:23:51.732Z,992.48
2019-03-25T03:24:51.755Z,992.44
2019-03-25T03:25:57.785Z,992.43
2019-03-25T03:26:52.696Z,992.37
2019-03-25T03:27:51.692Z,992.37
2019-03-25T03:28:51.679Z,992.34
2019-03-25T03:29:51.693Z,992.41
2019-03-25T03:30:51.657Z,992.30
2019-03-25T03:31:51.645Z,992.28
2019-03-25T03:32:51.647Z,992.31
2019-03-25T03:33:51.629Z,992.29
2019-03-25T03:34:51.648Z,992.23
2019-03-25T03:35:51.606Z,992.28
2019-03-25T03:36:51.598Z,992.25
2019-03-25T03:37:51.580Z,992.20
2019-03-25T03:38:51.568Z,992.19
2019-03-25T03:39:51.583Z,992.22
2019-03-25T03:40:51.549Z,992.19
2019-03-25T03:41:51.535Z,992.25
2019-03-25T03:42:51.530Z,992.21
2019-03-25T03:43:51.516Z,992.22
2019-03-25T03:44:51.533Z,992.18
2019-03-25T03:45:51.505Z,992.18
2019-03-25T03:46:51.499Z,992.15
2019-03-25T03:47:51.483Z,992.16
2019-03-25T03:48:51.468Z,992.16
2019-03-25T03:49:51.479Z,992.15
2019-03-25T03:50:51.440Z,992.15
2019-03-25T03:51:51.436Z,992.14
2019-03-25T03:52:51.419Z,992.16
2019-03-25T03:53:51.411Z,992.14
2019-03-25T03:54:51.432Z,992.09
2019-03-25T03:55:51.393Z,992.09
2019-03-25T03:56:51.374Z,992.05
2019-03-25T03:57:51.367Z,992.08
2019-03-25T03:58:51.366Z,992.06
2019-03-25T03:59:51.341Z,992.01
2019-03-25T04:00:51.376Z,992.02
2019-03-25T04:01:51.320Z,992.01
2019-03-25T04:02:51.311Z,991.99
2019-03-25T04:03:51.296Z,991.97
2019-03-25T04:04:51.293Z,991.97
2019-03-25T04:05:51.300Z,991.95
2019-03-25T04:06:51.266Z,992.02
2019-03-25T04:07:51.259Z,992.01
2019-03-25T04:08:51.243Z,991.94
2019-03-25T04:09:51.231Z,991.96
2019-03-25T04:10:51.337Z,991.89
2019-03-25T04:11:51.212Z,991.88
2019-03-25T04:12:51.201Z,991.95
2019-03-25T04:13:51.195Z,991.87
2019-03-25T04:14:51.190Z,991.87
2019-03-25T04:15:51.192Z,991.84
2019-03-25T04:16:51.164Z,991.84
2019-03-25T04:17:51.146Z,991.92
2019-03-25T04:18:51.141Z,991.89
2019-03-25T04:19:51.128Z,991.83
2019-03-25T04:20:51.147Z,991.82
2019-03-25T04:21:51.105Z,991.86
2019-03-25T04:22:51.093Z,991.82
2019-03-25T04:23:51.084Z,991.82
2019-03-25T04:24:51.076Z,991.81
2019-03-25T04:25:51.100Z,991.82
2019-03-25T04:26:51.063Z,991.75
2019-03-25T04:27:51.040Z,991.81
2019-03-25T04:28:51.029Z,991.83
2019-03-25T04:29:51.016Z,991.86
2019-03-25T04:30:51.035Z,991.87
2019-03-25T04:31:50.998Z,991.85
2019-03-25T04:32:50.985Z,991.86
2019-03-25T04:33:50.974Z,991.81
2019-03-25T04:34:50.963Z,991.78
2019-03-25T04:35:50.990Z,991.80
2019-03-25T04:36:50.943Z,991.80
2019-03-25T04:37:50.934Z,991.77
2019-03-25T04:38:50.927Z,991.77
2019-03-25T04:39:50.910Z,991.74
2019-03-25T04:40:50.899Z,991.72
2019-03-25T04:41:50.913Z,991.73
2019-03-25T04:42:50.879Z,991.68
2019-03-25T04:43:50.870Z,991.63
2019-03-25T04:44:50.858Z,991.63
2019-03-25T04:45:50.845Z,991.69
2019-03-25T04:46:50.857Z,991.67
2019-03-25T04:47:50.825Z,991.69
2019-03-25T04:48:50.819Z,991.65
2019-03-25T04:49:50.798Z,991.64
2019-03-25T04:50:50.792Z,991.51
2019-03-25T04:51:50.807Z,991.60
2019-03-25T04:52:50.769Z,991.64
2019-03-25T04:53:50.760Z,991.71
2019-03-25T04:54:50.746Z,991.69
2019-03-25T04:55:50.739Z,991.76
2019-03-25T04:56:50.749Z,991.63
2019-03-25T04:57:50.716Z,991.67
2019-03-25T04:58:50.701Z,991.74
2019-03-25T04:59:50.696Z,991.73
2019-03-25T05:00:50.693Z,991.74
2019-03-25T05:01:50.697Z,991.76
2019-03-25T05:02:50.667Z,991.74
2019-03-25T05:03:50.653Z,991.71
2019-03-25T05:04:50.642Z,991.75
2019-03-25T05:05:50.626Z,991.72
2019-03-25T05:06:50.644Z,991.75
2019-03-25T05:07:50.605Z,991.69
2019-03-25T05:08:50.594Z,991.77
2019-03-25T05:09:50.585Z,991.66
2019-03-25T05:10:50.580Z,991.67
2019-03-25T05:11:50.583Z,991.70
2019-03-25T05:12:50.552Z,991.68
2019-03-25T05:13:50.544Z,991.70
2019-03-25T05:14:50.530Z,991.66
2019-03-25T05:15:50.519Z,991.69
2019-03-25T05:16:50.530Z,991.73
2019-03-25T05:17:50.501Z,991.81
2019-03-25T05:18:50.483Z,991.77
2019-03-25T05:19:50.479Z,991.70
2019-03-25T05:20:50.462Z,991.67
2019-03-25T05:21:50.489Z,991.74
2019-03-25T05:22:50.444Z,991.75
2019-03-25T05:23:50.431Z,991.76
2019-03-25T05:24:50.420Z,991.79
2019-03-25T05:25:50.407Z,991.71
2019-03-25T05:26:51.403Z,991.76
2019-03-25T05:27:50.407Z,991.83
2019-03-25T05:28:50.374Z,991.75
2019-03-25T05:29:50.369Z,991.73
2019-03-25T05:30:50.355Z,991.79
2019-03-25T05:31:50.342Z,991.79
2019-03-25T05:32:50.363Z,991.80
2019-03-25T05:33:50.326Z,991.82
2019-03-25T05:34:50.312Z,991.77
2019-03-25T05:35:50.302Z,991.82
2019-03-25T05:36:50.288Z,991.77
2019-03-25T05:37:50.302Z,991.82
2019-03-25T05:38:50.279Z,991.78
2019-03-25T05:39:50.261Z,991.89
2019-03-25T05:40:50.263Z,991.94
2019-03-25T05:41:50.242Z,992.05
2019-03-25T05:42:50.254Z,992.08
2019-03-25T05:43:50.219Z,991.96
2019-03-25T05:44:50.203Z,991.87
2019-03-25T05:45:50.197Z,991.93
2019-03-25T05:46:50.182Z,991.90
2019-03-25T05:47:50.200Z,991.90
2019-03-25T05:48:50.159Z,991.90
2019-03-25T05:49:50.152Z,991.95
2019-03-25T05:50:50.137Z,992.03
2019-03-25T05:51:50.133Z,991.90
2019-03-25T05:52:50.145Z,991.88
2019-03-25T05:53:50.104Z,991.90
2019-03-25T05:54:50.099Z,991.92
2019-03-25T05:55:50.094Z,991.85
2019-03-25T05:56:50.077Z,991.88
2019-03-25T05:57:50.083Z,991.83
2019-03-25T05:58:50.059Z,991.86
2019-03-25T05:59:50.047Z,991.98
2019-03-25T06:00:50.032Z,991.93
2019-03-25T06:01:50.021Z,991.93
2019-03-25T06:02:50.032Z,992.01
2019-03-25T06:03:49.997Z,991.95
2019-03-25T06:04:49.990Z,991.99
2019-03-25T06:05:49.975Z,992.01
2019-03-25T06:06:52.034Z,992.01
2019-03-25T06:07:49.996Z,992.03
2019-03-25T06:08:49.942Z,992.03
2019-03-25T06:09:49.934Z,992.00
2019-03-25T06:10:49.923Z,992.06
2019-03-25T06:11:49.910Z,992.04
2019-03-25T06:12:49.909Z,992.06
2019-03-25T06:13:49.915Z,992.02
2019-03-25T06:14:49.881Z,992.07
2019-03-25T06:15:49.867Z,992.07
2019-03-25T06:16:49.865Z,991.99
2019-03-25T06:17:49.847Z,992.01
2019-03-25T06:18:49.861Z,992.05
2019-03-25T06:19:49.825Z,992.07
2019-03-25T06:20:49.818Z,992.04
2019-03-25T06:21:49.805Z,992.08
2019-03-25T06:22:49.792Z,992.14
2019-03-25T06:23:49.823Z,992.08
2019-03-25T06:24:49.770Z,992.10
2019-03-25T06:25:49.765Z,992.14
2019-03-25T06:26:49.749Z,992.14
2019-03-25T06:27:49.738Z,992.12
2019-03-25T06:28:49.766Z,992.19
2019-03-25T06:29:49.738Z,992.18
2019-03-25T06:30:49.704Z,992.13
2019-03-25T06:31:49.694Z,992.05
2019-03-25T06:32:49.690Z,992.06
2019-03-25T06:33:49.701Z,992.14
2019-03-25T06:34:49.664Z,992.08
2019-03-25T06:35:49.651Z,992.15
2019-03-25T06:36:49.648Z,992.18
2019-03-25T06:37:49.628Z,992.22
2019-03-25T06:38:49.644Z,992.22
2019-03-25T06:39:49.606Z,992.25
2019-03-25T06:40:49.597Z,992.26
2019-03-25T06:41:49.584Z,992.19
2019-03-25T06:42:49.573Z,992.25
2019-03-25T06:43:49.587Z,992.20
2019-03-25T06:44:50.493Z,992.29
2019-03-25T06:45:49.550Z,992.35
2019-03-25T06:46:49.531Z,992.32
2019-03-25T06:47:49.515Z,992.31
2019-03-25T06:48:49.549Z,992.17
2019-03-25T06:49:49.499Z,992.41
2019-03-25T06:50:49.485Z,992.46
2019-03-25T06:51:49.476Z,992.40
2019-03-25T06:52:49.469Z,992.42
2019-03-25T06:53:49.477Z,992.44
2019-03-25T06:54:49.443Z,992.41
2019-03-25T06:55:49.431Z,992.33
2019-03-25T06:56:49.421Z,992.43
2019-03-25T06:57:49.411Z,992.42
2019-03-25T06:58:49.427Z,992.41
2019-03-25T06:59:49.383Z,992.44
2019-03-25T07:00:49.378Z,992.50
2019-03-25T07:01:49.365Z,992.50
2019-03-25T07:02:49.357Z,992.39
2019-03-25T07:03:49.341Z,992.46
2019-03-25T07:04:49.431Z,992.48
2019-03-25T07:05:49.320Z,992.47
2019-03-25T07:06:49.319Z,992.67
2019-03-25T07:07:49.299Z,992.53
2019-03-25T07:08:49.288Z,992.55
2019-03-25T07:09:49.297Z,992.51
2019-03-25T07:10:49.275Z,992.54
2019-03-25T07:11:49.252Z,992.50
2019-03-25T07:12:49.241Z,992.53
2019-03-25T07:13:49.231Z,992.49
2019-03-25T07:14:49.243Z,992.53
2019-03-25T07:15:49.214Z,992.48
2019-03-25T07:16:49.199Z,992.50
2019-03-25T07:17:49.211Z,992.45
2019-03-25T07:18:49.174Z,992.49
2019-03-25T07:19:49.254Z,992.55
2019-03-25T07:20:49.154Z,992.60
2019-03-25T07:21:49.155Z,992.53
2019-03-25T07:22:49.138Z,992.54
2019-03-25T07:23:49.122Z,992.55
2019-03-25T07:24:49.132Z,992.56
2019-03-25T07:25:49.099Z,992.53
2019-03-25T07:26:49.092Z,992.59
2019-03-25T07:27:49.081Z,992.68
2019-03-25T07:28:49.071Z,992.78
2019-03-25T07:29:49.077Z,992.71
2019-03-25T07:30:49.045Z,992.55
2019-03-25T07:31:49.037Z,992.65
2019-03-25T07:32:49.046Z,992.77
2019-03-25T07:33:49.014Z,992.85
2019-03-25T07:34:49.024Z,992.68
2019-03-25T07:35:49.095Z,992.67
2019-03-25T07:36:48.982Z,992.65
2019-03-25T07:37:48.974Z,992.77
2019-03-25T07:38:48.960Z,992.92
2019-03-25T07:39:48.969Z,992.72
2019-03-25T07:40:48.941Z,992.65
2019-03-25T07:41:48.927Z,992.65
2019-03-25T07:42:48.927Z,992.61
2019-03-25T07:43:48.907Z,992.70
2019-03-25T07:44:48.977Z,992.67
2019-03-25T07:45:48.887Z,992.66
2019-03-25T07:46:48.869Z,992.76
2019-03-25T07:47:48.868Z,992.64
2019-03-25T07:48:48.848Z,992.65
2019-03-25T07:49:48.863Z,992.64
2019-03-25T07:50:48.828Z,992.67
2019-03-25T07:51:48.843Z,992.69
2019-03-25T07:52:48.864Z,992.60
2019-03-25T07:53:50.968Z,992.65
2019-03-25T07:54:48.847Z,992.64
2019-03-25T07:55:48.772Z,992.54
2019-03-25T07:56:48.799Z,992.52
2019-03-25T07:57:48.913Z,992.56
2019-03-25T07:58:48.743Z,992.54
2019-03-25T07:59:48.774Z,992.61
2019-03-25T08:00:48.768Z,992.51
2019-03-25T08:01:48.723Z,992.50
2019-03-25T08:02:48.715Z,992.51
2019-03-25T08:03:48.714Z,992.58
2019-03-25T08:04:48.783Z,992.60
2019-03-25T08:05:48.693Z,992.56
2019-03-25T08:06:48.653Z,992.53
2019-03-25T08:07:48.640Z,992.49
2019-03-25T08:08:48.670Z,992.57
2019-03-25T08:09:48.637Z,992.63
2019-03-25T08:10:48.635Z,992.66
2019-03-25T08:11:48.632Z,992.67
2019-03-25T08:12:48.592Z,992.73
2019-03-25T08:13:48.588Z,992.76
2019-03-25T08:14:48.590Z,992.83
2019-03-25T08:15:48.621Z,992.64
2019-03-25T08:16:48.545Z,992.64
2019-03-25T08:17:48.535Z,992.62
2019-03-25T08:18:48.524Z,992.58
2019-03-25T08:19:48.511Z,992.66
2019-03-25T08:20:48.533Z,992.53
2019-03-25T08:21:48.493Z,992.59
2019-03-25T08:22:48.482Z,992.65
2019-03-25T08:23:48.465Z,992.72
2019-03-25T08:24:48.459Z,992.72
2019-03-25T08:25:48.468Z,992.81
2019-03-25T08:26:48.448Z,992.90
2019-03-25T08:27:59.162Z,992.94
2019-03-25T08:28:49.409Z,992.87
2019-03-25T08:29:48.400Z,992.84
2019-03-25T08:30:48.429Z,992.99
2019-03-25T08:31:48.381Z,992.86
2019-03-25T08:32:48.379Z,992.83
2019-03-25T08:33:48.358Z,992.90
2019-03-25T08:34:48.349Z,992.83
2019-03-25T08:35:48.385Z,992.91
2019-03-25T08:36:48.324Z,992.88
2019-03-25T08:37:48.319Z,992.86
2019-03-25T08:38:48.304Z,992.91
2019-03-25T08:39:48.294Z,992.87
2019-03-25T08:40:48.282Z,992.85
2019-03-25T08:41:48.296Z,992.85
2019-03-25T08:42:48.266Z,992.83
2019-03-25T08:43:50.376Z,992.89
2019-03-25T08:44:48.239Z,992.81
2019-03-25T08:45:48.229Z,992.82
2019-03-25T08:46:48.245Z,992.96
2019-03-25T08:47:48.204Z,992.78
2019-03-25T08:48:48.198Z,992.77
2019-03-25T08:49:48.181Z,992.84
2019-03-25T08:50:48.177Z,992.85
2019-03-25T08:51:48.182Z,992.80
2019-03-25T08:52:48.215Z,992.83
2019-03-25T08:53:48.153Z,993.35
2019-03-25T08:54:48.135Z,992.88
2019-03-25T08:55:48.116Z,992.76
2019-03-25T08:56:48.129Z,992.76
2019-03-25T08:57:48.094Z,992.71
2019-03-25T08:58:48.103Z,992.85
2019-03-25T08:59:48.075Z,992.79
2019-03-25T09:00:48.064Z,992.81
2019-03-25T09:01:48.097Z,992.67
2019-03-25T09:02:48.043Z,992.73
2019-03-25T09:03:48.046Z,992.72
2019-03-25T09:04:48.017Z,992.65
2019-03-25T09:05:48.008Z,992.69
2019-03-25T09:06:48.123Z,992.65
2019-03-25T09:07:47.996Z,992.58
2019-03-25T09:08:47.971Z,992.66
2019-03-25T09:09:47.963Z,992.58
2019-03-25T09:10:47.951Z,992.61
2019-03-25T09:11:47.979Z,992.61
2019-03-25T09:12:47.931Z,992.60
2019-03-25T09:13:47.918Z,992.67
2019-03-25T09:14:47.922Z,992.53
2019-03-25T09:15:47.894Z,992.60
2019-03-25T09:16:47.975Z,992.42
2019-03-25T09:17:47.898Z,992.54
2019-03-25T09:18:47.882Z,992.47
2019-03-25T09:19:47.851Z,992.47
2019-03-25T09:20:47.852Z,992.60
2019-03-25T09:21:47.833Z,992.44
2019-03-25T09:22:47.844Z,992.37
2019-03-25T09:23:48.826Z,992.39
2019-03-25T09:24:47.797Z,992.47
2019-03-25T09:25:47.827Z,992.43
2019-03-25T09:26:47.788Z,992.55
2019-03-25T09:27:47.826Z,992.48
2019-03-25T09:28:47.753Z,992.57
2019-03-25T09:29:47.758Z,992.54
2019-03-25T09:30:47.739Z,992.63
2019-03-25T09:31:47.719Z,992.68
2019-03-25T09:32:47.743Z,992.68
2019-03-25T09:33:47.705Z,992.73
2019-03-25T09:34:47.693Z,992.84
2019-03-25T09:35:47.689Z,992.80
2019-03-25T09:36:47.669Z,992.84
2019-03-25T09:37:47.699Z,992.79
2019-03-25T09:38:47.644Z,992.88
2019-03-25T09:39:47.633Z,992.88
2019-03-25T09:40:47.621Z,992.90
2019-03-25T09:41:47.632Z,992.70
2019-03-25T09:42:47.621Z,992.74
2019-03-25T09:43:47.590Z,992.80
2019-03-25T09:44:47.577Z,992.86
2019-03-25T09:45:47.565Z,992.90
2019-03-25T09:46:47.555Z,992.97
2019-03-25T09:47:47.568Z,993.16
2019-03-25T09:48:47.541Z,993.17
2019-03-25T09:49:47.528Z,993.01
2019-03-25T09:50:47.515Z,992.88
2019-03-25T09:51:47.501Z,992.85
2019-03-25T09:52:47.519Z,992.86
2019-03-25T09:53:47.483Z,992.99
2019-03-25T09:54:47.466Z,992.86
2019-03-25T09:55:47.461Z,992.81
2019-03-25T09:56:47.445Z,992.86
2019-03-25T09:57:47.460Z,992.82
2019-03-25T09:58:47.425Z,992.80
2019-03-25T09:59:47.418Z,992.80
2019-03-25T10:00:47.409Z,992.84
2019-03-25T10:01:47.397Z,992.82
2019-03-25T10:02:47.468Z,992.84
2019-03-25T10:03:47.377Z,992.86
2019-03-25T10:04:47.359Z,992.81
2019-03-25T10:05:47.348Z,992.84
2019-03-25T10:06:47.337Z,992.90
2019-03-25T10:07:47.383Z,993.00
2019-03-25T10:08:47.376Z,992.76
2019-03-25T10:09:47.305Z,992.80
2019-03-25T10:10:47.297Z,992.98
2019-03-25T10:11:47.289Z,992.84
2019-03-25T10:12:47.276Z,992.73
2019-03-25T10:13:47.290Z,992.79
2019-03-25T10:14:47.273Z,992.72
2019-03-25T10:15:47.250Z,992.74
2019-03-25T10:16:47.233Z,992.83
2019-03-25T10:17:47.223Z,992.82
2019-03-25T10:18:47.230Z,992.89
2019-03-25T10:19:47.196Z,992.95
2019-03-25T10:20:47.184Z,992.90
2019-03-25T10:21:47.175Z,993.00
2019-03-25T10:22:47.162Z,992.90
2019-03-25T10:23:47.228Z,992.97
2019-03-25T10:24:47.146Z,992.91
2019-03-25T10:25:47.127Z,992.96
2019-03-25T10:26:47.120Z,993.06
2019-03-25T10:27:47.108Z,993.03
2019-03-25T10:28:48.833Z,993.02
2019-03-25T10:29:47.090Z,993.09
2019-03-25T10:30:47.076Z,993.08
2019-03-25T10:31:47.063Z,993.06
2019-03-25T10:32:47.051Z,993.18
2019-03-25T10:33:47.084Z,993.17
2019-03-25T10:34:47.034Z,993.26
2019-03-25T10:35:47.019Z,993.24
2019-03-25T10:36:47.011Z,993.31
2019-03-25T10:37:46.994Z,993.33
2019-03-25T10:38:47.018Z,993.39
2019-03-25T10:39:46.973Z,993.44
2019-03-25T10:40:53.470Z,993.38
2019-03-25T10:41:46.956Z,993.44
2019-03-25T10:43:55.682Z,993.53
2019-03-25T10:44:55.642Z,993.59
2019-03-25T10:45:55.646Z,993.54
2019-03-25T10:46:55.623Z,993.51
2019-03-25T10:47:55.613Z,993.47
2019-03-25T10:48:55.706Z,993.49
2019-03-25T10:49:55.613Z,993.30
2019-03-25T10:50:55.591Z,993.20
2019-03-25T10:51:55.571Z,993.18
2019-03-25T10:52:55.561Z,993.20
2019-03-25T10:53:55.574Z,993.19
2019-03-25T10:55:55.524Z,993.31
2019-03-25T10:56:55.535Z,993.22
2019-03-25T10:57:55.516Z,993.08
2019-03-25T10:58:58.287Z,993.20
2019-03-25T10:59:55.504Z,993.09
2019-03-25T11:00:55.476Z,993.17
2019-03-25T11:01:55.453Z,993.05
2019-03-25T11:02:55.460Z,993.05
2019-03-25T11:03:55.435Z,993.05
2019-03-25T11:04:55.447Z,992.95
2019-03-25T11:05:55.412Z,992.87
2019-03-25T11:06:55.399Z,992.99
2019-03-25T11:07:55.394Z,993.01
2019-03-25T11:08:55.378Z,993.09
2019-03-25T11:09:55.390Z,993.18
2019-03-25T11:10:55.360Z,993.52
2019-03-25T11:11:55.348Z,993.35
2019-03-25T11:12:55.335Z,993.50
2019-03-25T11:13:55.322Z,993.58
2019-03-25T11:14:55.342Z,993.60
2019-03-25T11:15:55.301Z,993.50
2019-03-25T11:16:55.286Z,993.51
2019-03-25T11:17:55.276Z,993.56
2019-03-25T11:18:55.265Z,993.47
2019-03-25T11:19:55.278Z,993.51
2019-03-25T11:20:55.246Z,993.37
2019-03-25T11:21:55.233Z,993.39
2019-03-25T11:22:55.252Z,993.31
2019-03-25T11:23:55.214Z,993.39
2019-03-25T11:24:55.226Z,993.31
2019-03-25T11:25:55.197Z,993.35
2019-03-25T11:26:55.179Z,993.34
2019-03-25T11:27:55.165Z,993.31
2019-03-25T11:28:55.157Z,993.23
2019-03-25T11:29:55.234Z,993.32
2019-03-25T11:30:55.134Z,993.32
2019-03-25T11:31:55.123Z,993.30
2019-03-25T11:32:55.112Z,993.25
2019-03-25T11:33:55.149Z,993.22
2019-03-25T11:34:55.115Z,993.29
2019-03-25T11:35:55.094Z,993.15
2019-03-25T11:36:55.068Z,993.25
2019-03-25T11:37:55.062Z,993.31
2019-03-25T11:38:55.044Z,993.55
2019-03-25T11:39:55.084Z,993.20
2019-03-25T11:40:55.023Z,993.26
2019-03-25T11:41:55.018Z,993.21
2019-03-25T11:42:55.014Z,993.48
2019-03-25T11:43:54.997Z,993.21
2019-03-25T11:44:54.978Z,993.37
2019-03-25T11:45:54.989Z,993.46
2019-03-25T11:46:54.956Z,993.61
2019-03-25T11:47:54.960Z,993.42
2019-03-25T11:48:54.939Z,993.32
2019-03-25T11:49:54.923Z,993.37
2019-03-25T11:50:54.933Z,993.36
2019-03-25T11:51:54.917Z,993.34
2019-03-25T11:52:54.891Z,993.42
2019-03-25T11:53:54.884Z,993.26
2019-03-25T11:54:54.870Z,993.33
2019-03-25T11:55:54.959Z,993.46
2019-03-25T11:56:54.848Z,993.50
2019-03-25T11:57:54.837Z,993.49
2019-03-25T11:58:54.825Z,993.52
2019-03-25T11:59:54.811Z,993.62
2019-03-25T12:00:54.829Z,993.68
2019-03-25T12:01:54.801Z,993.71
2019-03-25T12:02:54.783Z,993.75
2019-03-25T12:03:54.769Z,993.53
2019-03-25T12:04:54.761Z,993.53
2019-03-25T12:05:54.994Z,993.46
2019-03-25T12:06:54.733Z,993.56
2019-03-25T12:07:54.722Z,993.45
2019-03-25T12:08:54.724Z,993.49
2019-03-25T12:09:54.701Z,993.46
2019-03-25T12:10:54.715Z,993.47
2019-03-25T12:11:54.679Z,993.49
2019-03-25T12:12:54.674Z,993.48
2019-03-25T12:13:54.683Z,993.41
2019-03-25T12:14:54.743Z,993.49
2019-03-25T12:15:54.663Z,993.49
2019-03-25T12:16:54.620Z,993.48
2019-03-25T12:17:54.663Z,993.59
2019-03-25T12:18:54.599Z,993.65
2019-03-25T12:19:54.594Z,993.51
2019-03-25T12:20:54.604Z,993.58
2019-03-25T12:21:54.570Z,993.72
2019-03-25T12:22:54.557Z,993.57
2019-03-25T12:23:54.545Z,993.71
2019-03-25T12:24:54.533Z,993.73
2019-03-25T12:25:54.548Z,994.03
2019-03-25T12:26:54.513Z,993.76
2019-03-25T12:27:54.501Z,993.73
2019-03-25T12:28:54.509Z,993.93
2019-03-25T12:29:54.476Z,993.61
2019-03-25T12:30:54.493Z,993.79